createdAt,value
2023-01-21T00:01:11.590Z,63.77
2023-01-21T00:03:59.960Z,66.20
2023-01-21T00:06:49.142Z,58.20
2023-01-21T00:09:37.075Z,61.37
2023-01-21T00:12:25.055Z,63.50
2023-01-21T00:15:12.986Z,68.57
2023-01-21T00:18:02.240Z,64.90
2023-01-21T00:20:50.172Z,63.97
2023-01-21T00:23:38.128Z,64.53
2023-01-21T00:26:26.105Z,64.17
2023-01-21T00:29:14.358Z,63.93
2023-01-21T00:32:02.284Z,63.73
2023-01-21T00:34:51.582Z,64.50
2023-01-21T00:37:39.640Z,64.83
2023-01-21T00:40:27.710Z,67.40
2023-01-21T00:43:15.647Z,61.37
2023-01-21T00:46:03.967Z,61.53
2023-01-21T00:48:51.966Z,71.80
2023-01-21T00:51:41.260Z,62.23
2023-01-21T00:54:31.182Z,68.13
2023-01-21T00:57:19.133Z,62.77
2023-01-21T01:00:11.042Z,67.20
2023-01-21T01:02:59.026Z,59.83
2023-01-21T01:05:46.930Z,60.20
2023-01-21T01:08:36.287Z,65.37
2023-01-21T01:11:25.703Z,63.53
2023-01-21T01:14:13.629Z,61.37
2023-01-21T01:17:01.553Z,63.63
2023-01-21T01:19:49.457Z,65.33
2023-01-21T01:22:37.380Z,57.27
2023-01-21T01:25:26.650Z,63.90
2023-01-21T01:28:14.593Z,71.47
2023-01-21T01:31:04.869Z,64.27
2023-01-21T01:33:52.825Z,62.90
2023-01-21T01:36:40.724Z,64.30
2023-01-21T01:39:28.662Z,65.37
2023-01-21T01:42:17.998Z,61.97
2023-01-21T01:45:08.379Z,62.23
2023-01-21T01:48:02.400Z,63.17
2023-01-21T01:50:50.655Z,63.87
2023-01-21T01:53:41.853Z,57.33
2023-01-21T01:56:31.353Z,60.67
2023-01-21T01:59:21.057Z,63.00
2023-01-21T02:02:12.345Z,63.90
2023-01-21T02:05:05.624Z,61.03
2023-01-21T02:07:53.772Z,53.97
2023-01-21T02:10:41.684Z,57.03
2023-01-21T02:13:33.188Z,61.40
2023-01-21T02:16:37.413Z,60.37
2023-01-21T02:19:50.786Z,54.57
2023-01-21T02:22:49.276Z,53.10
2023-01-21T02:26:10.578Z,53.00
2023-01-21T02:29:21.559Z,47.97
2023-01-21T02:32:38.873Z,47.07
2023-01-21T02:35:37.741Z,47.87
2023-01-21T02:38:31.082Z,48.37
2023-01-21T02:41:30.628Z,51.20
2023-01-21T02:44:26.280Z,46.67
2023-01-21T02:47:23.718Z,44.33
2023-01-21T02:50:18.787Z,41.00
2023-01-21T02:53:08.264Z,41.53
2023-01-21T02:55:58.498Z,43.20
2023-01-21T02:58:48.916Z,40.77
2023-01-21T03:01:51.719Z,41.13
2023-01-21T03:04:52.990Z,37.33
2023-01-21T03:07:47.663Z,40.00
2023-01-21T03:10:42.799Z,43.60
2023-01-21T03:13:53.062Z,44.87
2023-01-21T03:16:57.940Z,40.13
2023-01-21T03:19:53.396Z,40.53
2023-01-21T03:22:42.805Z,41.70
2023-01-21T03:25:34.192Z,43.97
2023-01-21T03:28:27.295Z,41.37
2023-01-21T03:32:05.131Z,37.57
2023-01-21T03:34:55.717Z,36.90
2023-01-21T03:37:49.690Z,35.37
2023-01-21T03:40:41.648Z,44.10
2023-01-21T03:43:31.094Z,38.13
2023-01-21T03:46:25.556Z,39.23
2023-01-21T03:49:19.105Z,39.47
2023-01-21T03:52:09.065Z,41.93
2023-01-21T03:54:57.559Z,42.63
2023-01-21T03:57:45.802Z,43.43
2023-01-21T04:00:35.072Z,39.07
2023-01-21T04:03:23.745Z,40.13
2023-01-21T04:06:14.680Z,42.70
2023-01-21T04:09:02.608Z,39.83
2023-01-21T04:11:50.534Z,39.80
2023-01-21T04:14:38.719Z,39.33
2023-01-21T04:17:28.719Z,40.13
2023-01-21T04:20:17.071Z,43.50
2023-01-21T04:23:05.174Z,36.67
2023-01-21T04:25:53.372Z,40.90
2023-01-21T04:28:42.048Z,38.83
2023-01-21T04:31:29.986Z,37.10
2023-01-21T04:34:19.284Z,38.80
2023-01-21T04:37:07.570Z,37.07
2023-01-21T04:39:55.472Z,31.13
2023-01-21T04:42:43.874Z,35.57
2023-01-21T04:45:31.819Z,31.80
2023-01-21T04:48:19.839Z,32.80
2023-01-21T04:51:09.202Z,29.13
2023-01-21T04:53:57.197Z,29.13
2023-01-21T04:56:45.232Z,31.10
2023-01-21T04:59:33.131Z,29.07
2023-01-21T05:02:21.118Z,31.83
2023-01-21T05:05:09.399Z,28.87
2023-01-21T05:07:58.705Z,29.50
2023-01-21T05:10:46.683Z,27.73
2023-01-21T05:13:34.591Z,30.90
2023-01-21T05:16:23.129Z,29.27
2023-01-21T05:19:11.880Z,27.93
2023-01-21T05:21:59.785Z,26.43
2023-01-21T05:24:49.057Z,30.57
2023-01-21T05:27:36.956Z,29.53
2023-01-21T05:30:24.886Z,27.13
2023-01-21T05:33:12.945Z,25.30
2023-01-21T05:36:02.651Z,32.07
2023-01-21T05:38:50.869Z,28.87
2023-01-21T05:41:40.117Z,29.57
2023-01-21T05:44:28.083Z,28.20
2023-01-21T05:47:16.005Z,29.03
2023-01-21T05:50:04.308Z,29.47
2023-01-21T05:52:52.518Z,29.00
2023-01-21T05:55:40.769Z,27.33
2023-01-21T05:58:30.460Z,26.57
2023-01-21T06:01:18.351Z,26.77
2023-01-21T06:04:06.382Z,30.17
2023-01-21T06:06:54.276Z,27.97
2023-01-21T06:09:42.225Z,26.03
2023-01-21T06:12:30.186Z,26.20
2023-01-21T06:15:19.821Z,24.07
2023-01-21T06:18:07.906Z,26.83
2023-01-21T06:20:55.824Z,25.90
2023-01-21T06:23:43.741Z,26.03
2023-01-21T06:26:31.681Z,26.77
2023-01-21T06:29:19.716Z,25.40
2023-01-21T06:32:09.185Z,25.83
2023-01-21T06:34:57.212Z,24.37
2023-01-21T06:37:45.941Z,25.43
2023-01-21T06:40:34.235Z,24.50
2023-01-21T06:43:22.170Z,23.53
2023-01-21T06:46:10.559Z,22.17
2023-01-21T06:49:00.483Z,23.60
2023-01-21T06:51:48.959Z,23.00
2023-01-21T06:54:36.895Z,22.27
2023-01-21T06:57:25.230Z,22.90
2023-01-21T07:00:14.341Z,22.13
2023-01-21T07:03:02.400Z,22.70
2023-01-21T07:05:51.724Z,21.17
2023-01-21T07:08:39.671Z,20.30
2023-01-21T07:11:27.693Z,20.37
2023-01-21T07:14:15.622Z,20.40
2023-01-21T07:17:03.575Z,21.43
2023-01-21T07:19:51.509Z,21.57
2023-01-21T07:22:40.802Z,19.97
2023-01-21T07:25:28.734Z,20.10
2023-01-21T07:28:17.056Z,20.70
2023-01-21T07:31:05.309Z,18.80
2023-01-21T07:33:53.439Z,19.73
2023-01-21T07:36:41.730Z,21.67
2023-01-21T07:39:31.020Z,19.53
2023-01-21T07:42:18.914Z,21.10
2023-01-21T07:45:07.839Z,21.07
2023-01-21T07:47:55.948Z,19.73
2023-01-21T07:50:43.954Z,21.23
2023-01-21T07:53:31.941Z,20.30
2023-01-21T07:56:21.213Z,19.20
2023-01-21T07:59:10.721Z,19.93
2023-01-21T08:01:58.912Z,20.30
2023-01-21T08:04:46.910Z,20.57
2023-01-21T08:07:34.870Z,20.13
2023-01-21T08:10:23.102Z,22.63
2023-01-21T08:13:12.340Z,22.67
2023-01-21T08:16:00.294Z,21.90
2023-01-21T08:18:48.206Z,20.97
2023-01-21T08:21:36.180Z,20.83
2023-01-21T08:24:24.128Z,21.63
2023-01-21T08:27:12.064Z,21.27
2023-01-21T08:30:01.355Z,22.40
2023-01-21T08:32:49.782Z,22.77
2023-01-21T08:35:37.735Z,24.27
2023-01-21T08:38:25.724Z,24.60
2023-01-21T08:41:13.622Z,22.40
2023-01-21T08:44:01.819Z,27.17
2023-01-21T08:46:51.279Z,23.07
2023-01-21T08:49:39.182Z,27.87
2023-01-21T08:52:27.220Z,27.10
2023-01-21T08:55:15.550Z,27.33
2023-01-21T08:58:03.596Z,26.07
2023-01-21T09:00:51.903Z,26.10
2023-01-21T09:03:41.242Z,32.33
2023-01-21T09:06:30.929Z,27.43
2023-01-21T09:09:18.853Z,29.43
2023-01-21T09:12:08.045Z,31.60
2023-01-21T09:14:55.983Z,30.70
2023-01-21T09:17:43.879Z,30.23
2023-01-21T09:20:33.253Z,29.23
2023-01-21T09:23:28.000Z,33.27
2023-01-21T09:26:18.583Z,34.07
2023-01-21T09:29:06.557Z,35.30
2023-01-21T09:31:54.694Z,31.67
2023-01-21T09:34:42.623Z,34.90
2023-01-21T09:37:34.635Z,34.33
2023-01-21T09:40:22.527Z,33.83
2023-01-21T09:43:14.560Z,37.60
2023-01-21T09:46:06.168Z,42.87
2023-01-21T09:48:56.806Z,40.50
2023-01-21T09:51:52.741Z,42.40
2023-01-21T09:54:42.301Z,38.47
2023-01-21T09:58:07.687Z,41.57
2023-01-21T10:01:03.986Z,35.80
2023-01-21T10:03:56.793Z,38.33
2023-01-21T10:06:52.289Z,37.60
2023-01-21T10:09:56.744Z,41.40
2023-01-21T10:13:04.000Z,39.80
2023-01-21T10:16:01.521Z,43.27
2023-01-21T10:18:53.519Z,42.70
2023-01-21T10:21:47.752Z,45.17
2023-01-21T10:24:39.073Z,45.63
2023-01-21T10:27:32.229Z,45.70
2023-01-21T10:30:24.009Z,42.57
2023-01-21T10:33:18.125Z,45.87
2023-01-21T10:36:25.420Z,43.70
2023-01-21T10:39:23.949Z,42.97
2023-01-21T10:42:29.539Z,45.67
2023-01-21T10:45:29.060Z,49.30
2023-01-21T10:48:24.051Z,44.43
2023-01-21T10:51:21.690Z,46.43
2023-01-21T10:54:22.262Z,46.93
2023-01-21T10:57:25.762Z,48.70
2023-01-21T11:00:22.814Z,45.63
2023-01-21T11:03:14.645Z,47.50
2023-01-21T11:06:06.828Z,50.50
2023-01-21T11:08:59.246Z,51.00
2023-01-21T11:11:47.155Z,51.17
2023-01-21T11:14:35.383Z,55.33
2023-01-21T11:17:34.133Z,51.13
2023-01-21T11:20:28.704Z,47.67
2023-01-21T11:23:28.087Z,50.27
2023-01-21T11:26:21.305Z,46.27
2023-01-21T11:29:13.806Z,53.20
2023-01-21T11:32:06.689Z,49.17
2023-01-21T11:35:05.558Z,51.57
2023-01-21T11:37:53.507Z,49.10
2023-01-21T11:40:41.825Z,54.33
2023-01-21T11:43:35.199Z,54.67
2023-01-21T11:46:28.313Z,51.50
2023-01-21T11:49:32.420Z,52.00
2023-01-21T11:52:22.102Z,53.53
2023-01-21T11:55:21.935Z,53.47
2023-01-21T11:58:19.713Z,60.70
2023-01-21T12:01:12.002Z,63.87
2023-01-21T12:04:01.955Z,66.83
2023-01-21T12:06:53.537Z,68.07
2023-01-21T12:09:50.248Z,61.50
2023-01-21T12:12:53.407Z,60.40
2023-01-21T12:15:56.540Z,59.37
2023-01-21T12:19:02.919Z,51.77
2023-01-21T12:22:04.920Z,51.23
2023-01-21T12:25:17.241Z,48.93
2023-01-21T12:28:30.697Z,55.20
2023-01-21T12:31:29.448Z,50.53
2023-01-21T12:34:28.323Z,54.30
2023-01-21T12:37:22.118Z,53.37
2023-01-21T12:40:19.438Z,53.70
2023-01-21T12:43:16.880Z,53.90
2023-01-21T12:46:10.666Z,56.87
2023-01-21T12:49:03.347Z,54.37
2023-01-21T12:51:56.518Z,52.07
2023-01-21T12:54:51.344Z,50.03
2023-01-21T12:57:47.666Z,55.57
2023-01-21T13:00:40.280Z,50.50
2023-01-21T13:03:34.254Z,57.47
2023-01-21T13:06:47.174Z,53.47
2023-01-21T13:09:45.133Z,52.83
2023-01-21T13:12:35.374Z,51.30
2023-01-21T13:15:30.094Z,55.10
2023-01-21T13:18:24.102Z,60.87
2023-01-21T13:21:22.233Z,58.03
2023-01-21T13:24:17.523Z,51.63
2023-01-21T13:27:14.116Z,52.40
2023-01-21T13:30:10.899Z,52.90
2023-01-21T13:33:12.674Z,54.27
2023-01-21T13:36:17.043Z,53.97
2023-01-21T13:39:10.059Z,54.27
2023-01-21T13:42:14.544Z,53.67
2023-01-21T13:45:24.785Z,53.90
2023-01-21T13:48:50.376Z,49.67
2023-01-21T13:51:50.930Z,50.63
2023-01-21T13:54:52.841Z,54.33
2023-01-21T13:57:53.465Z,54.83
2023-01-21T14:00:45.694Z,54.73
2023-01-21T14:03:42.207Z,47.43
2023-01-21T14:06:35.884Z,53.80
2023-01-21T14:09:30.279Z,50.03
2023-01-21T14:12:23.256Z,51.63
2023-01-21T14:15:25.007Z,53.93
2023-01-21T14:18:30.128Z,54.13
2023-01-21T14:21:40.697Z,47.20
2023-01-21T14:24:45.585Z,47.57
2023-01-21T14:27:46.129Z,47.03
2023-01-21T14:30:43.012Z,51.00
2023-01-21T14:33:39.876Z,48.80
2023-01-21T14:36:39.492Z,52.13
2023-01-21T14:39:38.873Z,51.17
2023-01-21T14:42:41.554Z,53.40
2023-01-21T14:45:54.410Z,52.03
2023-01-21T14:48:42.801Z,51.23
2023-01-21T14:51:33.035Z,51.83
2023-01-21T14:54:26.205Z,52.47
2023-01-21T14:57:25.504Z,61.43
2023-01-21T15:00:23.178Z,51.30
2023-01-21T15:03:16.850Z,47.53
2023-01-21T15:06:09.720Z,51.37
2023-01-21T15:09:01.276Z,48.97
2023-01-21T15:11:53.069Z,46.93
2023-01-21T15:14:42.699Z,53.00
2023-01-21T15:18:03.194Z,45.60
2023-01-21T15:20:52.455Z,37.77
2023-01-21T15:23:40.730Z,44.07
2023-01-21T15:26:33.683Z,47.03
2023-01-21T15:29:34.700Z,49.63
2023-01-21T15:32:29.264Z,46.70
2023-01-21T15:35:24.698Z,44.40
2023-01-21T15:38:15.653Z,40.03
2023-01-21T15:41:10.498Z,42.40
2023-01-21T15:44:08.292Z,46.00
2023-01-21T15:47:03.292Z,42.97
2023-01-21T15:50:03.170Z,46.33
2023-01-21T15:53:06.983Z,45.37
2023-01-21T15:56:13.471Z,39.73
2023-01-21T15:59:15.524Z,41.87
2023-01-21T16:02:18.044Z,42.03
2023-01-21T16:05:20.294Z,37.80
2023-01-21T16:08:19.760Z,41.07
2023-01-21T16:11:21.020Z,40.67
2023-01-21T16:14:21.367Z,38.50
2023-01-21T16:17:18.733Z,39.07
2023-01-21T16:20:11.157Z,40.93
2023-01-21T16:23:01.511Z,38.60
2023-01-21T16:25:51.475Z,37.57
2023-01-21T16:28:44.247Z,41.43
2023-01-21T16:31:46.360Z,39.23
2023-01-21T16:34:41.674Z,36.97
2023-01-21T16:37:31.310Z,38.27
2023-01-21T16:40:30.284Z,38.07
2023-01-21T16:43:25.776Z,32.97
2023-01-21T16:46:17.294Z,38.67
2023-01-21T16:49:13.671Z,37.47
2023-01-21T16:52:03.910Z,36.87
2023-01-21T16:54:53.198Z,35.50
2023-01-21T16:57:48.987Z,33.20
2023-01-21T17:00:37.069Z,39.40
2023-01-21T17:03:25.193Z,36.10
2023-01-21T17:06:21.010Z,35.33
2023-01-21T17:09:20.716Z,37.33
2023-01-21T17:12:12.119Z,35.40
2023-01-21T17:15:03.611Z,36.63
2023-01-21T17:17:56.262Z,35.60
2023-01-21T17:20:45.954Z,33.67
2023-01-21T17:23:37.577Z,33.70
2023-01-21T17:26:29.405Z,32.03
2023-01-21T17:29:20.695Z,35.57
2023-01-21T17:32:25.643Z,36.40
2023-01-21T17:35:15.827Z,29.17
2023-01-21T17:38:06.234Z,30.67
2023-01-21T17:41:03.443Z,32.50
2023-01-21T17:43:53.254Z,32.73
2023-01-21T17:46:45.687Z,33.57
2023-01-21T17:49:33.628Z,33.23
2023-01-21T17:52:22.340Z,35.67
2023-01-21T17:55:25.535Z,35.77
2023-01-21T17:58:45.952Z,33.53
2023-01-21T18:01:35.415Z,29.57
2023-01-21T18:04:23.504Z,30.27
2023-01-21T18:07:22.240Z,31.50
2023-01-21T18:10:15.911Z,34.30
2023-01-21T18:13:04.087Z,34.57
2023-01-21T18:15:54.032Z,32.90
2023-01-21T18:18:43.457Z,34.60
2023-01-21T18:21:31.472Z,33.00
2023-01-21T18:24:19.532Z,32.67
2023-01-21T18:27:10.363Z,32.77
2023-01-21T18:29:59.218Z,32.47
2023-01-21T18:32:49.631Z,33.27
2023-01-21T18:35:40.979Z,27.83
2023-01-21T18:38:30.551Z,31.40
2023-01-21T18:41:19.563Z,30.67
2023-01-21T18:44:07.549Z,29.47
2023-01-21T18:46:56.564Z,31.33
2023-01-21T18:49:44.893Z,29.60
2023-01-21T18:52:34.237Z,29.30
2023-01-21T18:55:26.929Z,31.40
2023-01-21T18:58:15.080Z,32.33
2023-01-21T19:01:13.815Z,30.07
2023-01-21T19:04:09.845Z,29.07
2023-01-21T19:06:58.231Z,30.97
2023-01-21T19:09:50.505Z,29.37
2023-01-21T19:12:38.491Z,28.47
2023-01-21T19:15:28.870Z,30.23
2023-01-21T19:18:17.817Z,31.00
2023-01-21T19:21:08.108Z,29.67
2023-01-21T19:23:56.325Z,30.73
2023-01-21T19:26:45.573Z,31.80
2023-01-21T19:29:33.494Z,35.47
2023-01-21T19:32:21.548Z,35.87
2023-01-21T19:35:09.951Z,34.37
2023-01-21T19:37:58.812Z,33.27
2023-01-21T19:40:47.525Z,32.87
2023-01-21T19:43:36.817Z,35.10
2023-01-21T19:46:28.720Z,33.17
2023-01-21T19:49:17.967Z,27.37
2023-01-21T19:52:06.520Z,31.10
2023-01-21T19:54:55.256Z,31.60
2023-01-21T19:57:44.237Z,37.30
2023-01-21T20:00:36.106Z,33.47
2023-01-21T20:03:25.606Z,31.03
2023-01-21T20:06:13.635Z,34.17
2023-01-21T20:09:01.646Z,31.43
2023-01-21T20:11:49.564Z,34.30
2023-01-21T20:14:37.547Z,36.90
2023-01-21T20:17:26.933Z,30.83
2023-01-21T20:20:17.030Z,37.97
2023-01-21T20:23:05.039Z,37.33
2023-01-21T20:25:56.317Z,31.77
2023-01-21T20:28:50.159Z,35.77
2023-01-21T20:31:38.106Z,32.27
2023-01-21T20:34:30.864Z,32.60
2023-01-21T20:37:18.813Z,33.90
2023-01-21T20:40:07.423Z,34.37
2023-01-21T20:42:57.007Z,36.97
2023-01-21T20:45:47.470Z,34.73
2023-01-21T20:48:37.666Z,38.10
2023-01-21T20:51:27.043Z,35.37
2023-01-21T20:54:15.015Z,35.43
2023-01-21T20:57:03.728Z,36.73
2023-01-21T20:59:51.649Z,36.90
2023-01-21T21:02:39.605Z,36.53
2023-01-21T21:05:28.857Z,34.70
2023-01-21T21:08:20.144Z,36.53
2023-01-21T21:11:08.347Z,37.57
2023-01-21T21:13:56.460Z,33.80
2023-01-21T21:16:44.548Z,39.97
2023-01-21T21:19:32.465Z,37.73
2023-01-21T21:22:20.395Z,37.00
2023-01-21T21:25:14.415Z,39.03
2023-01-21T21:28:02.347Z,34.83
2023-01-21T21:30:50.272Z,37.37
2023-01-21T21:33:38.252Z,37.53
2023-01-21T21:36:26.249Z,36.53
2023-01-21T21:39:19.086Z,35.23
2023-01-21T21:42:28.088Z,36.40
2023-01-21T21:45:16.440Z,32.80
2023-01-21T21:48:25.337Z,38.10
2023-01-21T21:51:17.376Z,33.73
2023-01-21T21:54:07.666Z,33.07
2023-01-21T21:56:56.083Z,38.73
2023-01-21T21:59:46.573Z,38.87
2023-01-21T22:02:34.607Z,38.97
2023-01-21T22:05:22.647Z,42.43
2023-01-21T22:08:15.675Z,38.27
2023-01-21T22:11:05.009Z,36.20
2023-01-21T22:13:54.253Z,40.80
2023-01-21T22:16:44.169Z,37.40
2023-01-21T22:19:32.084Z,35.40
2023-01-21T22:22:19.984Z,35.33
2023-01-21T22:25:09.331Z,35.43
2023-01-21T22:27:57.276Z,41.53
2023-01-21T22:30:45.291Z,41.40
2023-01-21T22:33:35.495Z,36.87
2023-01-21T22:36:25.003Z,39.07
2023-01-21T22:39:12.971Z,36.13
2023-01-21T22:42:03.030Z,39.43
2023-01-21T22:44:50.989Z,39.83
2023-01-21T22:47:38.944Z,38.60
2023-01-21T22:50:28.394Z,39.40
2023-01-21T22:53:16.329Z,39.07
2023-01-21T22:56:06.034Z,40.30
2023-01-21T22:58:54.026Z,38.27
2023-01-21T23:01:42.733Z,40.20
2023-01-21T23:04:30.695Z,40.53
2023-01-21T23:07:19.963Z,39.10
2023-01-21T23:10:08.443Z,39.17
2023-01-21T23:12:56.463Z,38.83
2023-01-21T23:15:45.058Z,42.57
2023-01-21T23:18:33.861Z,39.37
2023-01-21T23:21:23.179Z,38.83
2023-01-21T23:24:12.453Z,38.70
2023-01-21T23:27:00.385Z,40.70
2023-01-21T23:29:48.379Z,39.07
2023-01-21T23:32:36.357Z,41.90
2023-01-21T23:35:24.301Z,42.70
2023-01-21T23:38:12.243Z,42.50
2023-01-21T23:41:06.814Z,41.37
2023-01-21T23:43:54.703Z,40.57
2023-01-21T23:46:43.509Z,39.80
2023-01-21T23:49:31.463Z,37.17
2023-01-21T23:52:19.432Z,41.17
2023-01-21T23:55:09.686Z,42.13
2023-01-21T23:57:58.962Z,41.03
